sensor_id;sensor_type;location;lat;lon;timestamp;P1;durP1;ratioP1;P2;durP2;ratioP2
24751;SDS011;27246;52.376;4.628;2022-10-17T00:04:14;8.95;;;4.18;;
24751;SDS011;27246;52.376;4.628;2022-10-17T00:09:16;5.25;;;4.15;;
24751;SDS011;27246;52.376;4.628;2022-10-17T00:14:18;8.73;;;4.10;;
24751;SDS011;27246;52.376;4.628;2022-10-17T00:19:19;5.10;;;3.97;;
24751;SDS011;27246;52.376;4.628;2022-10-17T00:24:21;8.45;;;4.55;;
24751;SDS011;27246;52.376;4.628;2022-10-17T00:29:23;7.93;;;4.90;;
24751;SDS011;27246;52.376;4.628;2022-10-17T00:34:24;9.05;;;3.83;;
24751;SDS011;27246;52.376;4.628;2022-10-17T00:39:30;5.78;;;3.88;;
24751;SDS011;27246;52.376;4.628;2022-10-17T00:49:34;4.55;;;3.53;;
24751;SDS011;27246;52.376;4.628;2022-10-17T00:54:39;5.80;;;3.78;;
24751;SDS011;27246;52.376;4.628;2022-10-17T00:59:44;5.28;;;4.22;;
24751;SDS011;27246;52.376;4.628;2022-10-17T01:04:51;7.82;;;4.15;;
24751;SDS011;27246;52.376;4.628;2022-10-17T01:09:56;5.53;;;3.60;;
24751;SDS011;27246;52.376;4.628;2022-10-17T01:31:08;6.82;;;4.20;;
24751;SDS011;27246;52.376;4.628;2022-10-17T01:46:48;6.20;;;4.47;;
24751;SDS011;27246;52.376;4.628;2022-10-17T01:51:56;5.20;;;4.70;;
24751;SDS011;27246;52.376;4.628;2022-10-17T01:57:04;7.97;;;5.18;;
24751;SDS011;27246;52.376;4.628;2022-10-17T02:02:14;5.43;;;4.93;;
24751;SDS011;27246;52.376;4.628;2022-10-17T02:07:18;6.53;;;4.97;;
24751;SDS011;27246;52.376;4.628;2022-10-17T02:12:36;8.38;;;5.20;;
24751;SDS011;27246;52.376;4.628;2022-10-17T02:34:02;7.80;;;5.75;;
24751;SDS011;27246;52.376;4.628;2022-10-17T02:39:31;8.85;;;5.50;;
24751;SDS011;27246;52.376;4.628;2022-10-17T02:44:37;9.10;;;5.78;;
24751;SDS011;27246;52.376;4.628;2022-10-17T02:49:50;6.30;;;5.70;;
24751;SDS011;27246;52.376;4.628;2022-10-17T02:54:58;8.95;;;6.43;;
24751;SDS011;27246;52.376;4.628;2022-10-17T03:00:10;6.93;;;6.28;;
24751;SDS011;27246;52.376;4.628;2022-10-17T03:05:26;7.90;;;7.07;;
24751;SDS011;27246;52.376;4.628;2022-10-17T03:16:06;9.25;;;7.75;;
24751;SDS011;27246;52.376;4.628;2022-10-17T03:21:09;7.28;;;6.57;;
24751;SDS011;27246;52.376;4.628;2022-10-17T03:26:15;7.20;;;6.50;;
24751;SDS011;27246;52.376;4.628;2022-10-17T03:31:20;7.85;;;7.05;;
24751;SDS011;27246;52.376;4.628;2022-10-17T03:36:30;12.00;;;7.40;;
24751;SDS011;27246;52.376;4.628;2022-10-17T03:41:32;8.25;;;7.45;;
24751;SDS011;27246;52.376;4.628;2022-10-17T03:46:39;8.98;;;6.97;;
24751;SDS011;27246;52.376;4.628;2022-10-17T03:51:43;7.65;;;6.95;;
24751;SDS011;27246;52.376;4.628;2022-10-17T03:56:50;7.72;;;7.03;;
24751;SDS011;27246;52.376;4.628;2022-10-17T04:01:53;8.70;;;7.20;;
24751;SDS011;27246;52.376;4.628;2022-10-17T04:06:57;8.05;;;6.80;;
24751;SDS011;27246;52.376;4.628;2022-10-17T04:12:00;8.02;;;7.22;;
24751;SDS011;27246;52.376;4.628;2022-10-17T04:17:03;7.43;;;6.63;;
24751;SDS011;27246;52.376;4.628;2022-10-17T04:22:07;10.50;;;7.15;;
24751;SDS011;27246;52.376;4.628;2022-10-17T04:27:12;10.07;;;7.45;;
24751;SDS011;27246;52.376;4.628;2022-10-17T04:32:19;8.20;;;6.75;;
24751;SDS011;27246;52.376;4.628;2022-10-17T04:37:27;8.93;;;6.63;;
24751;SDS011;27246;52.376;4.628;2022-10-17T04:42:36;7.25;;;6.55;;
24751;SDS011;27246;52.376;4.628;2022-10-17T04:47:40;7.53;;;6.82;;
24751;SDS011;27246;52.376;4.628;2022-10-17T04:52:42;7.43;;;6.30;;
24751;SDS011;27246;52.376;4.628;2022-10-17T04:57:45;8.68;;;6.32;;
24751;SDS011;27246;52.376;4.628;2022-10-17T05:03:02;7.55;;;6.30;;
24751;SDS011;27246;52.376;4.628;2022-10-17T05:08:09;7.20;;;6.45;;
24751;SDS011;27246;52.376;4.628;2022-10-17T05:13:13;7.70;;;6.90;;
24751;SDS011;27246;52.376;4.628;2022-10-17T05:18:21;8.98;;;6.45;;
24751;SDS011;27246;52.376;4.628;2022-10-17T05:23:28;9.15;;;6.80;;
24751;SDS011;27246;52.376;4.628;2022-10-17T05:28:34;8.05;;;7.05;;
24751;SDS011;27246;52.376;4.628;2022-10-17T05:33:41;8.75;;;6.32;;
24751;SDS011;27246;52.376;4.628;2022-10-17T05:38:48;8.00;;;6.90;;
24751;SDS011;27246;52.376;4.628;2022-10-17T05:44:08;8.52;;;6.70;;
24751;SDS011;27246;52.376;4.628;2022-10-17T05:49:28;9.23;;;6.65;;
24751;SDS011;27246;52.376;4.628;2022-10-17T05:54:47;7.25;;;6.40;;
24751;SDS011;27246;52.376;4.628;2022-10-17T05:59:53;9.20;;;6.30;;
24751;SDS011;27246;52.376;4.628;2022-10-17T06:04:56;10.23;;;6.30;;
24751;SDS011;27246;52.376;4.628;2022-10-17T06:09:58;10.43;;;7.45;;
24751;SDS011;27246;52.376;4.628;2022-10-17T06:15:00;9.20;;;6.85;;
24751;SDS011;27246;52.376;4.628;2022-10-17T06:20:02;14.90;;;7.30;;
24751;SDS011;27246;52.376;4.628;2022-10-17T06:25:06;9.23;;;6.68;;
24751;SDS011;27246;52.376;4.628;2022-10-17T06:30:08;8.57;;;6.47;;
24751;SDS011;27246;52.376;4.628;2022-10-17T06:35:10;8.65;;;6.10;;
24751;SDS011;27246;52.376;4.628;2022-10-17T06:40:15;11.60;;;6.68;;
24751;SDS011;27246;52.376;4.628;2022-10-17T06:45:18;8.77;;;6.13;;
24751;SDS011;27246;52.376;4.628;2022-10-17T06:50:28;7.38;;;6.47;;
24751;SDS011;27246;52.376;4.628;2022-10-17T06:55:39;8.13;;;6.50;;
24751;SDS011;27246;52.376;4.628;2022-10-17T07:00:50;8.52;;;7.20;;
24751;SDS011;27246;52.376;4.628;2022-10-17T07:05:53;7.68;;;6.88;;
24751;SDS011;27246;52.376;4.628;2022-10-17T07:10:56;7.90;;;7.03;;
24751;SDS011;27246;52.376;4.628;2022-10-17T07:16:00;8.30;;;6.88;;
24751;SDS011;27246;52.376;4.628;2022-10-17T07:21:04;9.18;;;6.70;;
24751;SDS011;27246;52.376;4.628;2022-10-17T07:26:10;7.78;;;7.00;;
24751;SDS011;27246;52.376;4.628;2022-10-17T07:31:15;8.13;;;6.88;;
24751;SDS011;27246;52.376;4.628;2022-10-17T07:36:19;8.38;;;6.57;;
24751;SDS011;27246;52.376;4.628;2022-10-17T07:41:21;8.13;;;6.10;;
24751;SDS011;27246;52.376;4.628;2022-10-17T07:46:24;9.73;;;6.57;;
24751;SDS011;27246;52.376;4.628;2022-10-17T07:51:28;12.07;;;6.68;;
24751;SDS011;27246;52.376;4.628;2022-10-17T07:56:30;11.13;;;6.20;;
24751;SDS011;27246;52.376;4.628;2022-10-17T08:01:32;12.15;;;6.75;;
24751;SDS011;27246;52.376;4.628;2022-10-17T08:06:34;7.47;;;6.35;;
24751;SDS011;27246;52.376;4.628;2022-10-17T08:11:36;9.88;;;6.75;;
24751;SDS011;27246;52.376;4.628;2022-10-17T08:16:39;8.27;;;6.75;;
24751;SDS011;27246;52.376;4.628;2022-10-17T08:21:43;7.38;;;6.68;;
24751;SDS011;27246;52.376;4.628;2022-10-17T08:26:47;8.25;;;7.32;;
24751;SDS011;27246;52.376;4.628;2022-10-17T08:31:52;10.10;;;6.70;;
24751;SDS011;27246;52.376;4.628;2022-10-17T08:37:02;9.05;;;6.13;;
24751;SDS011;27246;52.376;4.628;2022-10-17T08:47:10;9.57;;;7.05;;
24751;SDS011;27246;52.376;4.628;2022-10-17T08:57:37;9.55;;;6.85;;
24751;SDS011;27246;52.376;4.628;2022-10-17T09:03:02;10.23;;;6.55;;
24751;SDS011;27246;52.376;4.628;2022-10-17T09:08:19;7.65;;;5.93;;
24751;SDS011;27246;52.376;4.628;2022-10-17T09:19:03;6.57;;;5.07;;
24751;SDS011;27246;52.376;4.628;2022-10-17T09:24:20;6.18;;;4.55;;
24751;SDS011;27246;52.376;4.628;2022-10-17T09:29:28;6.72;;;4.82;;
24751;SDS011;27246;52.376;4.628;2022-10-17T09:34:38;7.70;;;4.00;;
24751;SDS011;27246;52.376;4.628;2022-10-17T09:39:40;6.57;;;4.20;;
24751;SDS011;27246;52.376;4.628;2022-10-17T09:44:51;7.88;;;3.88;;
24751;SDS011;27246;52.376;4.628;2022-10-17T09:49:57;4.88;;;3.42;;
24751;SDS011;27246;52.376;4.628;2022-10-17T10:00:29;6.03;;;3.45;;
24751;SDS011;27246;52.376;4.628;2022-10-17T10:05:33;3.92;;;2.83;;
24751;SDS011;27246;52.376;4.628;2022-10-17T10:10:34;4.07;;;2.65;;
24751;SDS011;27246;52.376;4.628;2022-10-17T10:15:37;3.50;;;2.40;;
24751;SDS011;27246;52.376;4.628;2022-10-17T10:20:41;3.65;;;2.35;;
24751;SDS011;27246;52.376;4.628;2022-10-17T10:26:03;5.53;;;2.50;;
24751;SDS011;27246;52.376;4.628;2022-10-17T10:31:12;6.60;;;3.53;;
24751;SDS011;27246;52.376;4.628;2022-10-17T10:36:14;5.30;;;2.40;;
24751;SDS011;27246;52.376;4.628;2022-10-17T10:41:16;5.60;;;2.42;;
24751;SDS011;27246;52.376;4.628;2022-10-17T10:46:19;2.17;;;1.67;;
24751;SDS011;27246;52.376;4.628;2022-10-17T10:56:51;5.05;;;2.28;;
24751;SDS011;27246;52.376;4.628;2022-10-17T11:02:17;4.70;;;2.27;;
24751;SDS011;27246;52.376;4.628;2022-10-17T11:07:29;4.13;;;2.15;;
24751;SDS011;27246;52.376;4.628;2022-10-17T11:12:36;5.60;;;2.30;;
24751;SDS011;27246;52.376;4.628;2022-10-17T11:18:23;4.18;;;2.25;;
24751;SDS011;27246;52.376;4.628;2022-10-17T11:23:26;2.28;;;1.88;;
24751;SDS011;27246;52.376;4.628;2022-10-17T11:28:34;4.15;;;1.70;;
24751;SDS011;27246;52.376;4.628;2022-10-17T11:33:49;6.30;;;1.63;;
24751;SDS011;27246;52.376;4.628;2022-10-17T11:39:17;3.00;;;1.70;;
24751;SDS011;27246;52.376;4.628;2022-10-17T11:49:43;6.80;;;1.65;;
24751;SDS011;27246;52.376;4.628;2022-10-17T11:54:53;5.90;;;2.58;;
24751;SDS011;27246;52.376;4.628;2022-10-17T12:15:53;3.38;;;1.40;;
24751;SDS011;27246;52.376;4.628;2022-10-17T12:20:59;4.28;;;2.28;;
24751;SDS011;27246;52.376;4.628;2022-10-17T12:26:02;3.13;;;1.45;;
24751;SDS011;27246;52.376;4.628;2022-10-17T13:02:35;2.17;;;1.50;;
24751;SDS011;27246;52.376;4.628;2022-10-17T13:07:37;3.60;;;1.58;;
24751;SDS011;27246;52.376;4.628;2022-10-17T13:12:43;3.88;;;1.77;;
24751;SDS011;27246;52.376;4.628;2022-10-17T13:17:45;3.38;;;1.73;;
24751;SDS011;27246;52.376;4.628;2022-10-17T13:22:56;3.20;;;1.42;;
24751;SDS011;27246;52.376;4.628;2022-10-17T13:28:02;5.75;;;1.40;;
24751;SDS011;27246;52.376;4.628;2022-10-17T13:38:31;2.53;;;1.50;;
24751;SDS011;27246;52.376;4.628;2022-10-17T13:43:39;5.30;;;2.50;;
24751;SDS011;27246;52.376;4.628;2022-10-17T13:48:40;4.20;;;1.83;;
24751;SDS011;27246;52.376;4.628;2022-10-17T13:53:43;3.38;;;1.80;;
24751;SDS011;27246;52.376;4.628;2022-10-17T13:58:46;8.25;;;1.77;;
24751;SDS011;27246;52.376;4.628;2022-10-17T14:03:51;2.25;;;1.63;;
24751;SDS011;27246;52.376;4.628;2022-10-17T14:09:24;4.20;;;1.63;;
24751;SDS011;27246;52.376;4.628;2022-10-17T14:14:29;4.53;;;1.65;;
24751;SDS011;27246;52.376;4.628;2022-10-17T14:19:55;3.42;;;1.58;;
24751;SDS011;27246;52.376;4.628;2022-10-17T14:25:28;7.65;;;1.80;;
24751;SDS011;27246;52.376;4.628;2022-10-17T14:30:32;7.78;;;1.77;;
24751;SDS011;27246;52.376;4.628;2022-10-17T14:35:57;3.90;;;1.70;;
24751;SDS011;27246;52.376;4.628;2022-10-17T14:41:02;3.22;;;1.60;;
24751;SDS011;27246;52.376;4.628;2022-10-17T14:46:29;5.03;;;1.73;;
24751;SDS011;27246;52.376;4.628;2022-10-17T14:51:31;5.70;;;2.08;;
24751;SDS011;27246;52.376;4.628;2022-10-17T14:56:53;8.65;;;2.45;;
24751;SDS011;27246;52.376;4.628;2022-10-17T15:01:56;7.20;;;1.95;;
24751;SDS011;27246;52.376;4.628;2022-10-17T15:06:57;4.97;;;2.95;;
24751;SDS011;27246;52.376;4.628;2022-10-17T15:12:00;5.90;;;2.10;;
24751;SDS011;27246;52.376;4.628;2022-10-17T15:17:04;8.38;;;2.40;;
24751;SDS011;27246;52.376;4.628;2022-10-17T15:22:12;7.82;;;2.80;;
24751;SDS011;27246;52.376;4.628;2022-10-17T15:32:20;5.30;;;2.47;;
24751;SDS011;27246;52.376;4.628;2022-10-17T15:37:22;9.85;;;2.58;;
24751;SDS011;27246;52.376;4.628;2022-10-17T15:42:27;7.10;;;2.90;;
24751;SDS011;27246;52.376;4.628;2022-10-17T15:47:30;6.47;;;2.65;;
24751;SDS011;27246;52.376;4.628;2022-10-17T15:52:36;5.88;;;2.20;;
24751;SDS011;27246;52.376;4.628;2022-10-17T15:57:39;8.20;;;2.05;;
24751;SDS011;27246;52.376;4.628;2022-10-17T16:02:43;5.32;;;2.55;;
24751;SDS011;27246;52.376;4.628;2022-10-17T16:07:45;10.40;;;2.75;;
24751;SDS011;27246;52.376;4.628;2022-10-17T16:12:48;6.80;;;2.10;;
24751;SDS011;27246;52.376;4.628;2022-10-17T16:17:55;4.95;;;2.65;;
24751;SDS011;27246;52.376;4.628;2022-10-17T16:22:59;15.80;;;4.55;;
24751;SDS011;27246;52.376;4.628;2022-10-17T16:28:03;6.85;;;2.55;;
24751;SDS011;27246;52.376;4.628;2022-10-17T16:33:06;7.65;;;2.90;;
24751;SDS011;27246;52.376;4.628;2022-10-17T16:38:08;5.38;;;2.75;;
24751;SDS011;27246;52.376;4.628;2022-10-17T16:43:11;9.45;;;3.33;;
24751;SDS011;27246;52.376;4.628;2022-10-17T16:48:13;7.93;;;3.03;;
24751;SDS011;27246;52.376;4.628;2022-10-17T16:53:15;11.43;;;3.03;;
24751;SDS011;27246;52.376;4.628;2022-10-17T16:58:17;6.10;;;2.38;;
24751;SDS011;27246;52.376;4.628;2022-10-17T17:03:19;7.80;;;2.95;;
24751;SDS011;27246;52.376;4.628;2022-10-17T17:08:20;9.02;;;3.22;;
24751;SDS011;27246;52.376;4.628;2022-10-17T17:13:22;10.90;;;2.83;;
24751;SDS011;27246;52.376;4.628;2022-10-17T17:18:24;11.77;;;2.83;;
24751;SDS011;27246;52.376;4.628;2022-10-17T17:23:26;11.35;;;3.70;;
24751;SDS011;27246;52.376;4.628;2022-10-17T17:28:29;5.50;;;2.25;;
24751;SDS011;27246;52.376;4.628;2022-10-17T17:33:32;10.38;;;2.72;;
24751;SDS011;27246;52.376;4.628;2022-10-17T17:38:34;11.80;;;3.78;;
24751;SDS011;27246;52.376;4.628;2022-10-17T17:43:36;13.30;;;4.43;;
24751;SDS011;27246;52.376;4.628;2022-10-17T17:48:39;8.18;;;2.88;;
24751;SDS011;27246;52.376;4.628;2022-10-17T17:53:41;6.80;;;2.13;;
24751;SDS011;27246;52.376;4.628;2022-10-17T17:58:44;10.57;;;2.80;;
24751;SDS011;27246;52.376;4.628;2022-10-17T18:03:48;7.45;;;2.58;;
24751;SDS011;27246;52.376;4.628;2022-10-17T18:08:56;7.78;;;2.92;;
24751;SDS011;27246;52.376;4.628;2022-10-17T18:14:01;6.25;;;2.53;;
24751;SDS011;27246;52.376;4.628;2022-10-17T18:19:35;6.05;;;1.95;;
24751;SDS011;27246;52.376;4.628;2022-10-17T18:24:37;7.97;;;1.77;;
24751;SDS011;27246;52.376;4.628;2022-10-17T18:29:39;8.93;;;2.38;;
24751;SDS011;27246;52.376;4.628;2022-10-17T18:34:42;8.90;;;2.30;;
24751;SDS011;27246;52.376;4.628;2022-10-17T18:39:45;10.95;;;3.97;;
24751;SDS011;27246;52.376;4.628;2022-10-17T18:44:49;16.92;;;3.03;;
24751;SDS011;27246;52.376;4.628;2022-10-17T18:49:51;10.82;;;2.47;;
24751;SDS011;27246;52.376;4.628;2022-10-17T18:54:55;9.20;;;2.95;;
24751;SDS011;27246;52.376;4.628;2022-10-17T18:59:56;8.57;;;2.40;;
24751;SDS011;27246;52.376;4.628;2022-10-17T19:04:59;9.73;;;2.60;;
24751;SDS011;27246;52.376;4.628;2022-10-17T19:10:03;8.52;;;2.17;;
24751;SDS011;27246;52.376;4.628;2022-10-17T19:15:05;8.15;;;2.25;;
24751;SDS011;27246;52.376;4.628;2022-10-17T19:20:07;11.57;;;3.08;;
24751;SDS011;27246;52.376;4.628;2022-10-17T19:25:09;9.43;;;2.25;;
24751;SDS011;27246;52.376;4.628;2022-10-17T19:30:11;5.82;;;2.17;;
24751;SDS011;27246;52.376;4.628;2022-10-17T19:35:19;7.43;;;1.97;;
24751;SDS011;27246;52.376;4.628;2022-10-17T19:40:24;9.18;;;2.40;;
24751;SDS011;27246;52.376;4.628;2022-10-17T19:45:25;5.38;;;1.80;;
24751;SDS011;27246;52.376;4.628;2022-10-17T19:50:27;6.82;;;2.45;;
24751;SDS011;27246;52.376;4.628;2022-10-17T19:55:30;7.18;;;2.08;;
24751;SDS011;27246;52.376;4.628;2022-10-17T20:00:33;10.07;;;2.60;;
24751;SDS011;27246;52.376;4.628;2022-10-17T20:05:36;7.07;;;2.00;;
24751;SDS011;27246;52.376;4.628;2022-10-17T20:10:38;5.80;;;2.22;;
24751;SDS011;27246;52.376;4.628;2022-10-17T20:15:40;9.95;;;2.10;;
24751;SDS011;27246;52.376;4.628;2022-10-17T20:20:42;5.72;;;1.90;;
24751;SDS011;27246;52.376;4.628;2022-10-17T20:25:44;7.55;;;2.25;;
24751;SDS011;27246;52.376;4.628;2022-10-17T20:30:46;7.45;;;2.83;;
24751;SDS011;27246;52.376;4.628;2022-10-17T20:35:48;7.68;;;1.98;;
24751;SDS011;27246;52.376;4.628;2022-10-17T20:40:52;7.32;;;2.22;;
24751;SDS011;27246;52.376;4.628;2022-10-17T20:45:54;7.97;;;2.75;;
24751;SDS011;27246;52.376;4.628;2022-10-17T20:51:09;13.18;;;2.47;;
24751;SDS011;27246;52.376;4.628;2022-10-17T20:56:15;4.95;;;2.35;;
24751;SDS011;27246;52.376;4.628;2022-10-17T21:01:23;8.35;;;2.00;;
24751;SDS011;27246;52.376;4.628;2022-10-17T21:06:26;6.93;;;2.17;;
24751;SDS011;27246;52.376;4.628;2022-10-17T21:11:28;3.05;;;1.58;;
24751;SDS011;27246;52.376;4.628;2022-10-17T21:16:31;6.65;;;2.00;;
24751;SDS011;27246;52.376;4.628;2022-10-17T21:21:37;8.45;;;2.75;;
24751;SDS011;27246;52.376;4.628;2022-10-17T21:26:42;13.20;;;2.55;;
24751;SDS011;27246;52.376;4.628;2022-10-17T21:31:45;8.30;;;2.97;;
24751;SDS011;27246;52.376;4.628;2022-10-17T21:36:47;3.58;;;1.70;;
24751;SDS011;27246;52.376;4.628;2022-10-17T21:41:50;10.35;;;2.53;;
24751;SDS011;27246;52.376;4.628;2022-10-17T21:46:53;9.40;;;2.85;;
24751;SDS011;27246;52.376;4.628;2022-10-17T21:51:55;7.57;;;2.28;;
24751;SDS011;27246;52.376;4.628;2022-10-17T21:56:58;10.70;;;2.60;;
24751;SDS011;27246;52.376;4.628;2022-10-17T22:02:00;13.30;;;2.92;;
24751;SDS011;27246;52.376;4.628;2022-10-17T22:07:02;5.55;;;2.08;;
24751;SDS011;27246;52.376;4.628;2022-10-17T22:12:05;7.38;;;2.50;;
24751;SDS011;27246;52.376;4.628;2022-10-17T22:17:07;7.25;;;2.70;;
24751;SDS011;27246;52.376;4.628;2022-10-17T22:22:08;8.80;;;2.95;;
24751;SDS011;27246;52.376;4.628;2022-10-17T22:27:10;8.60;;;2.72;;
24751;SDS011;27246;52.376;4.628;2022-10-17T22:32:12;11.43;;;3.08;;
24751;SDS011;27246;52.376;4.628;2022-10-17T22:37:18;8.85;;;2.88;;
24751;SDS011;27246;52.376;4.628;2022-10-17T22:42:20;6.20;;;2.47;;
24751;SDS011;27246;52.376;4.628;2022-10-17T22:47:27;4.78;;;1.98;;
24751;SDS011;27246;52.376;4.628;2022-10-17T22:52:30;7.75;;;2.15;;
24751;SDS011;27246;52.376;4.628;2022-10-17T22:57:32;7.80;;;2.53;;
24751;SDS011;27246;52.376;4.628;2022-10-17T23:02:34;7.93;;;2.55;;
24751;SDS011;27246;52.376;4.628;2022-10-17T23:07:36;4.55;;;2.30;;
24751;SDS011;27246;52.376;4.628;2022-10-17T23:12:38;7.82;;;2.53;;
24751;SDS011;27246;52.376;4.628;2022-10-17T23:17:39;8.20;;;2.78;;
24751;SDS011;27246;52.376;4.628;2022-10-17T23:22:41;8.13;;;2.90;;
24751;SDS011;27246;52.376;4.628;2022-10-17T23:27:42;8.60;;;3.50;;
24751;SDS011;27246;52.376;4.628;2022-10-17T23:32:44;5.18;;;2.40;;
24751;SDS011;27246;52.376;4.628;2022-10-17T23:37:46;6.68;;;2.95;;
24751;SDS011;27246;52.376;4.628;2022-10-17T23:42:47;5.03;;;2.40;;
24751;SDS011;27246;52.376;4.628;2022-10-17T23:47:49;6.82;;;2.88;;
24751;SDS011;27246;52.376;4.628;2022-10-17T23:52:51;5.50;;;2.42;;
24751;SDS011;27246;52.376;4.628;2022-10-17T23:57:52;8.55;;;3.00;;
